Time;durP1;ratioP1;P1;durP2;ratioP2;P2;SDS_P1;SDS_P2;PMS_P1;PMS_P2;Temp;Humidity;BMP_temperature;BMP_pressure;BME280_temperature;BME280_humidity;BME280_pressure;Samples;Min_cycle;Max_cycle;Signal;HPM_P1;HPM_P2
2023/03/03 00:01:05;;;;;;;50.45;18.88;;;0.80;99.90;;;;;;5057594;28;25059;-74
2023/03/03 00:03:33;;;;;;;55.28;17.85;;;0.80;99.90;;;;;;5057254;28;25063;-75
2023/03/03 00:06:02;;;;;;;45.00;16.52;;;0.80;99.90;;;;;;5056302;28;25083;-75
2023/03/03 00:08:31;;;;;;;42.55;17.08;;;0.80;99.90;;;;;;5057446;28;25059;-75
2023/03/03 00:10:59;;;;;;;50.60;18.70;;;0.80;99.90;;;;;;5056960;28;25079;-75
2023/03/03 00:13:27;;;;;;;49.03;15.57;;;0.80;99.90;;;;;;5057298;28;25072;-75
2023/03/03 00:16:06;;;;;;;34.63;14.00;;;0.80;99.90;;;;;;5055946;28;25067;-75
2023/03/03 00:18:36;;;;;;;39.40;15.02;;;0.80;99.90;;;;;;5057257;28;25070;-75
2023/03/03 00:21:25;;;;;;;43.47;15.80;;;0.80;99.90;;;;;;5057494;28;25067;-75
2023/03/03 00:23:54;;;;;;;43.15;15.23;;;0.70;99.90;;;;;;5056944;28;25059;-75
2023/03/03 00:26:38;;;;;;;45.03;16.48;;;0.70;99.90;;;;;;5056903;28;25066;-75
2023/03/03 00:29:24;;;;;;;40.92;15.10;;;0.70;99.90;;;;;;5055776;28;25080;-75
2023/03/03 00:31:51;;;;;;;40.15;17.02;;;0.70;99.90;;;;;;5057181;28;25118;-75
2023/03/03 00:34:26;;;;;;;50.58;17.95;;;0.70;99.90;;;;;;5055592;28;25082;-75
2023/03/03 00:36:55;;;;;;;42.30;15.50;;;0.70;99.90;;;;;;5057004;28;25114;-75
2023/03/03 00:39:38;;;;;;;42.17;15.70;;;0.70;99.90;;;;;;5057243;28;25079;-75
2023/03/03 00:42:14;;;;;;;38.15;15.55;;;0.70;99.90;;;;;;5040926;28;25071;-75
2023/03/03 00:44:45;;;;;;;43.35;15.73;;;0.70;99.90;;;;;;5036952;28;25118;-74
2023/03/03 00:47:26;;;;;;;42.90;15.48;;;0.70;99.90;;;;;;5036882;28;25083;-75
2023/03/03 00:50:22;;;;;;;46.75;16.88;;;0.70;99.90;;;;;;5037048;28;25111;-75
2023/03/03 00:53:11;;;;;;;50.45;17.55;;;0.70;99.90;;;;;;5036432;28;25109;-75
2023/03/03 00:55:39;;;;;;;41.22;15.57;;;0.70;99.90;;;;;;5019248;28;25137;-75
2023/03/03 00:58:06;;;;;;;49.72;16.08;;;0.70;99.90;;;;;;5036715;28;25060;-74
2023/03/03 01:00:34;;;;;;;42.50;16.33;;;0.70;99.90;;;;;;5019124;28;25052;-75
2023/03/03 01:03:08;;;;;;;45.70;16.73;;;0.70;99.90;;;;;;5036790;28;25057;-75
2023/03/03 01:05:36;;;;;;;42.75;16.75;;;0.70;99.90;;;;;;5036653;28;25064;-75
2023/03/03 01:08:04;;;;;;;41.50;16.17;;;0.60;99.90;;;;;;5036332;28;25108;-75
2023/03/03 01:10:37;;;;;;;45.67;16.65;;;0.70;99.90;;;;;;5036324;28;25076;-75
2023/03/03 01:13:05;;;;;;;39.72;16.13;;;0.60;99.90;;;;;;5018700;28;25116;-75
2023/03/03 01:15:32;;;;;;;43.17;15.57;;;0.60;99.90;;;;;;5018736;28;25069;-75
2023/03/03 01:18:00;;;;;;;39.88;15.20;;;0.60;99.90;;;;;;5018700;28;25123;-75
2023/03/03 01:20:27;;;;;;;36.63;15.40;;;0.60;99.90;;;;;;5018860;28;25098;-75
2023/03/03 01:22:54;;;;;;;41.75;17.45;;;0.60;99.90;;;;;;5038615;28;25061;-75
2023/03/03 01:25:22;;;;;;;44.05;17.45;;;0.50;99.90;;;;;;5022777;28;25067;-75
2023/03/03 01:27:49;;;;;;;43.13;17.67;;;0.60;99.90;;;;;;5022710;28;25058;-75
2023/03/03 01:30:16;;;;;;;39.13;15.07;;;0.50;99.90;;;;;;5040672;28;25087;-75
2023/03/03 01:32:43;;;;;;;51.20;17.15;;;0.50;99.90;;;;;;5040329;28;25055;-75
2023/03/03 01:35:11;;;;;;;35.85;14.48;;;0.50;99.90;;;;;;5040298;28;25070;-75
2023/03/03 01:37:38;;;;;;;41.83;17.85;;;0.50;99.90;;;;;;5022550;28;25082;-75
2023/03/03 01:40:12;;;;;;;42.78;14.68;;;0.50;99.90;;;;;;5040560;28;25075;-74
2023/03/03 01:42:39;;;;;;;38.92;14.77;;;0.50;99.90;;;;;;5059939;28;25060;-75
2023/03/03 01:45:26;;;;;;;39.17;13.95;;;0.50;99.90;;;;;;5059874;28;25055;-75
2023/03/03 01:48:04;;;;;;;41.40;15.20;;;0.50;99.90;;;;;;5059799;28;25115;-75
2023/03/03 01:50:52;;;;;;;39.30;15.13;;;0.40;99.90;;;;;;5060416;28;25084;-74
2023/03/03 01:53:28;;;;;;;42.00;15.73;;;0.40;99.90;;;;;;5060227;28;25067;-75
2023/03/03 01:55:55;;;;;;;47.25;15.80;;;0.40;99.90;;;;;;5060451;28;25070;-74
2023/03/03 01:58:51;;;;;;;42.65;14.95;;;0.30;99.90;;;;;;5041925;28;25073;-75
2023/03/03 02:01:25;;;;;;;45.92;15.93;;;0.40;99.90;;;;;;5058041;28;25143;-75
2023/03/03 02:03:52;;;;;;;46.45;14.55;;;0.40;99.90;;;;;;5041838;28;25124;-75
2023/03/03 02:06:36;;;;;;;36.22;15.43;;;0.40;99.90;;;;;;5041874;28;25064;-75
2023/03/03 02:09:20;;;;;;;38.97;13.57;;;0.40;99.90;;;;;;5041809;28;25052;-75
2023/03/03 02:11:50;;;;;;;40.08;14.35;;;0.40;99.90;;;;;;5041611;28;25071;-75
2023/03/03 02:14:18;;;;;;;39.85;15.30;;;0.40;99.90;;;;;;5059350;28;25064;-75
2023/03/03 02:16:45;;;;;;;38.42;15.40;;;0.40;99.90;;;;;;5041656;28;25108;-75
2023/03/03 02:19:36;;;;;;;46.33;15.73;;;0.40;99.90;;;;;;5059280;28;25104;-75
2023/03/03 02:22:03;;;;;;;41.08;15.27;;;0.40;99.90;;;;;;5059409;28;25103;-75
2023/03/03 02:24:58;;;;;;;46.92;14.82;;;0.40;99.90;;;;;;5059754;28;25080;-75
2023/03/03 02:27:28;;;;;;;41.50;14.85;;;0.40;99.90;;;;;;5041400;28;25065;-75
2023/03/03 02:29:55;;;;;;;36.67;14.13;;;0.40;99.90;;;;;;5059392;28;25131;-74
2023/03/03 02:32:22;;;;;;;36.75;13.57;;;0.40;99.90;;;;;;5041331;28;25062;-75
2023/03/03 02:34:51;;;;;;;37.92;13.43;;;0.40;99.90;;;;;;5058988;28;25080;-75
2023/03/03 02:37:19;;;;;;;43.17;13.77;;;0.40;99.90;;;;;;5058966;28;25051;-75
2023/03/03 02:39:46;;;;;;;39.70;13.65;;;0.40;99.90;;;;;;5059168;28;25052;-75
2023/03/03 02:42:30;;;;;;;38.08;13.55;;;0.30;99.90;;;;;;5041984;28;25154;-75
2023/03/03 02:44:57;;;;;;;37.72;15.18;;;0.30;99.90;;;;;;5038883;28;25087;-74
2023/03/03 02:47:25;;;;;;;38.97;13.40;;;0.30;99.90;;;;;;5021351;28;25142;-75
2023/03/03 02:49:52;;;;;;;38.33;14.27;;;0.20;99.90;;;;;;5038723;28;25045;-74
2023/03/03 02:52:19;;;;;;;36.53;13.10;;;0.30;99.90;;;;;;5039260;28;25108;-75
2023/03/03 02:54:47;;;;;;;31.02;11.52;;;0.30;99.90;;;;;;5038703;28;25002;-75
2023/03/03 02:57:14;;;;;;;29.23;10.65;;;0.30;99.90;;;;;;5021257;28;25075;-75
2023/03/03 02:59:42;;;;;;;32.13;12.38;;;0.30;99.90;;;;;;5038572;28;25064;-75
2023/03/03 03:02:09;;;;;;;31.98;11.98;;;0.20;99.90;;;;;;5021004;28;25063;-75
2023/03/03 03:04:37;;;;;;;31.25;11.50;;;0.20;99.90;;;;;;5020832;28;25110;-75
2023/03/03 03:07:04;;;;;;;30.50;10.60;;;0.20;99.90;;;;;;5038638;28;25063;-75
2023/03/03 03:09:31;;;;;;;35.20;12.30;;;0.10;99.90;;;;;;5020813;28;25081;-75
2023/03/03 03:12:01;;;;;;;35.03;11.88;;;0.10;99.90;;;;;;5038314;28;25060;-74
2023/03/03 03:14:29;;;;;;;30.13;10.90;;;0.10;99.90;;;;;;5038601;28;25060;-75
2023/03/03 03:16:56;;;;;;;32.22;11.38;;;0.10;99.90;;;;;;5038451;28;25155;-75
2023/03/03 03:19:24;;;;;;;33.40;12.73;;;0.10;99.90;;;;;;5020538;28;25099;-75
2023/03/03 03:21:51;;;;;;;31.55;11.15;;;0.10;99.90;;;;;;5038485;28;25117;-75
2023/03/03 03:24:18;;;;;;;35.45;11.07;;;0.10;99.90;;;;;;5038132;28;25064;-75
2023/03/03 03:26:46;;;;;;;27.88;11.07;;;0.10;99.90;;;;;;5020656;28;25124;-75
2023/03/03 03:29:13;;;;;;;29.40;11.25;;;0.10;99.90;;;;;;5038009;28;25058;-75
2023/03/03 03:31:42;;;;;;;26.70;10.45;;;0.00;99.90;;;;;;5020314;28;25111;-74
2023/03/03 03:34:10;;;;;;;32.10;10.75;;;0.00;99.90;;;;;;5038126;28;25080;-75
2023/03/03 03:36:38;;;;;;;28.25;10.52;;;0.00;99.90;;;;;;5038624;28;25113;-75
2023/03/03 03:39:06;;;;;;;24.13;9.80;;;0.00;99.90;;;;;;5037819;28;25056;-75
2023/03/03 03:41:33;;;;;;;33.60;10.73;;;0.00;99.90;;;;;;5038032;28;25150;-75
2023/03/03 03:44:01;;;;;;;27.33;8.38;;;0.00;99.90;;;;;;5019683;28;25065;-75
2023/03/03 03:46:28;;;;;;;30.65;11.15;;;-0.10;99.90;;;;;;5037875;28;25068;-75
2023/03/03 03:48:56;;;;;;;26.02;9.55;;;-0.10;99.90;;;;;;5037585;28;25070;-75
2023/03/03 03:51:23;;;;;;;29.33;11.55;;;-0.10;99.90;;;;;;5020023;28;25078;-75
2023/03/03 03:53:50;;;;;;;32.58;11.10;;;-0.10;99.90;;;;;;5020026;28;25054;-75
2023/03/03 03:56:17;;;;;;;31.98;10.40;;;-0.10;99.90;;;;;;5019977;28;25105;-75
2023/03/03 03:58:44;;;;;;;27.60;10.63;;;-0.10;99.90;;;;;;5037452;28;25080;-75
2023/03/03 04:01:12;;;;;;;24.35;9.43;;;-0.10;99.90;;;;;;5037403;28;25115;-75
2023/03/03 04:03:40;;;;;;;29.83;10.27;;;-0.10;99.90;;;;;;5037486;28;25093;-75
2023/03/03 04:06:07;;;;;;;22.58;8.98;;;-0.10;99.90;;;;;;5019804;28;25069;-75
2023/03/03 04:08:35;;;;;;;26.60;9.20;;;-0.10;99.90;;;;;;5037811;28;25051;-75
2023/03/03 04:11:02;;;;;;;25.58;10.30;;;-0.10;99.90;;;;;;5019854;28;25065;-75
2023/03/03 04:13:30;;;;;;;26.67;9.43;;;-0.10;99.90;;;;;;5037400;28;25104;-75
2023/03/03 04:15:58;;;;;;;26.38;9.38;;;-0.10;99.90;;;;;;5037163;28;25133;-75
2023/03/03 04:18:25;;;;;;;29.17;11.00;;;-0.10;99.90;;;;;;5037050;28;25081;-75
2023/03/03 04:20:53;;;;;;;25.58;9.90;;;-0.10;99.90;;;;;;5019738;28;25061;-75
2023/03/03 04:23:20;;;;;;;23.73;8.88;;;-0.10;99.90;;;;;;5037039;28;25109;-75
2023/03/03 04:25:48;;;;;;;19.08;7.95;;;-0.10;99.90;;;;;;5019505;28;25152;-75
2023/03/03 04:28:16;;;;;;;26.50;9.20;;;-0.10;99.90;;;;;;5036911;28;25051;-75
2023/03/03 04:30:44;;;;;;;22.50;8.90;;;-0.10;99.90;;;;;;5037611;28;25105;-75
2023/03/03 04:33:11;;;;;;;29.52;10.27;;;-0.10;99.90;;;;;;5036718;28;25072;-75
2023/03/03 04:35:39;;;;;;;25.23;9.02;;;-0.10;99.90;;;;;;5036856;28;25061;-75
2023/03/03 04:38:07;;;;;;;35.08;10.80;;;-0.10;99.90;;;;;;5019171;28;25113;-75
2023/03/03 04:40:34;;;;;;;25.23;9.20;;;-0.10;99.90;;;;;;5037339;28;25137;-75
2023/03/03 04:43:01;;;;;;;23.60;9.27;;;-0.10;99.90;;;;;;5036160;28;25117;-75
2023/03/03 04:45:28;;;;;;;25.52;9.55;;;-0.10;99.90;;;;;;5019184;28;25068;-74
2023/03/03 04:47:55;;;;;;;31.17;10.75;;;-0.10;99.90;;;;;;5036781;28;25108;-75
2023/03/03 04:50:22;;;;;;;22.98;10.32;;;-0.10;99.90;;;;;;5036217;28;25068;-75
2023/03/03 04:52:50;;;;;;;28.15;10.13;;;-0.10;99.90;;;;;;5037010;28;25106;-75
2023/03/03 04:55:18;;;;;;;25.33;9.43;;;-0.10;99.90;;;;;;5018685;28;25128;-75
2023/03/03 04:57:45;;;;;;;26.40;10.98;;;-0.10;99.90;;;;;;5018516;28;25076;-74
2023/03/03 05:00:13;;;;;;;25.08;9.52;;;-0.10;99.90;;;;;;5019076;28;25045;-75
2023/03/03 05:02:41;;;;;;;17.92;8.23;;;-0.10;99.90;;;;;;5036943;28;25062;-75
2023/03/03 05:05:09;;;;;;;21.38;8.20;;;-0.10;99.90;;;;;;5018820;28;25143;-75
2023/03/03 05:07:37;;;;;;;23.45;8.98;;;-0.10;99.90;;;;;;5036366;28;25076;-75
2023/03/03 05:10:04;;;;;;;21.65;8.45;;;-0.10;99.90;;;;;;5018803;28;25082;-75
2023/03/03 05:12:32;;;;;;;20.52;8.18;;;-0.10;99.90;;;;;;5036056;28;25065;-75
2023/03/03 05:15:00;;;;;;;21.30;8.07;;;-0.20;99.90;;;;;;5036848;28;25074;-75
2023/03/03 05:17:27;;;;;;;19.17;6.55;;;-0.20;99.90;;;;;;5036315;28;25132;-75
2023/03/03 05:19:56;;;;;;;19.63;7.63;;;-0.20;99.90;;;;;;5036241;28;25093;-74
2023/03/03 05:22:24;;;;;;;18.77;7.10;;;-0.30;99.90;;;;;;5036796;28;25068;-75
2023/03/03 05:24:52;;;;;;;24.15;8.10;;;-0.30;99.90;;;;;;5036202;28;25071;-75
2023/03/03 05:27:19;;;;;;;17.58;6.90;;;-0.30;99.90;;;;;;5036580;28;25095;-75
2023/03/03 05:29:46;;;;;;;21.58;8.15;;;-0.40;99.90;;;;;;5036688;28;25068;-75
2023/03/03 05:32:14;;;;;;;21.27;7.30;;;-0.40;99.90;;;;;;5036580;28;25060;-75
2023/03/03 05:34:41;;;;;;;20.77;7.07;;;-0.40;99.90;;;;;;5018514;28;25070;-75
2023/03/03 05:37:09;;;;;;;19.08;7.53;;;-0.40;99.90;;;;;;5035847;28;25072;-75
2023/03/03 05:39:36;;;;;;;24.33;7.75;;;-0.40;99.90;;;;;;5036096;28;25075;-75
2023/03/03 05:42:03;;;;;;;24.65;8.90;;;-0.40;99.90;;;;;;5036001;28;25101;-75
2023/03/03 05:44:31;;;;;;;21.50;8.88;;;-0.40;99.90;;;;;;5035969;28;25061;-75
2023/03/03 05:46:59;;;;;;;24.17;8.63;;;-0.40;99.90;;;;;;5036104;28;25065;-75
2023/03/03 05:49:27;;;;;;;22.33;7.93;;;-0.30;99.90;;;;;;5018323;28;25061;-75
2023/03/03 05:51:54;;;;;;;21.92;9.05;;;-0.40;99.90;;;;;;5036431;28;25117;-75
2023/03/03 05:54:21;;;;;;;20.05;7.03;;;-0.30;99.90;;;;;;5018336;28;25059;-74
2023/03/03 05:56:48;;;;;;;21.67;7.68;;;-0.30;99.90;;;;;;5036608;28;25093;-74
2023/03/03 05:59:16;;;;;;;17.42;7.70;;;-0.40;99.90;;;;;;5035857;28;25078;-75
2023/03/03 06:01:44;;;;;;;20.02;7.63;;;-0.50;99.90;;;;;;5035943;28;25096;-74
2023/03/03 06:04:11;;;;;;;19.92;7.70;;;-0.50;99.90;;;;;;5036383;28;25111;-75
2023/03/03 06:06:38;;;;;;;22.17;7.28;;;-0.50;99.90;;;;;;5018468;28;25066;-75
2023/03/03 06:09:06;;;;;;;19.38;9.23;;;-0.50;99.90;;;;;;5039415;28;25128;-74
2023/03/03 06:11:33;;;;;;;17.85;7.00;;;-0.50;99.90;;;;;;5040005;28;25061;-74
2023/03/03 06:14:01;;;;;;;21.45;7.53;;;-0.40;99.90;;;;;;5039992;28;25111;-74
2023/03/03 06:16:28;;;;;;;25.63;8.48;;;-0.40;99.90;;;;;;5022080;28;25075;-74
2023/03/03 06:18:55;;;;;;;24.00;8.50;;;-0.40;99.90;;;;;;5021759;28;25102;-74
2023/03/03 06:21:23;;;;;;;21.15;8.63;;;-0.40;99.90;;;;;;5037764;28;25060;-75
2023/03/03 06:23:50;;;;;;;21.20;8.52;;;-0.40;99.90;;;;;;5021648;28;25443;-74
2023/03/03 06:26:17;;;;;;;26.35;10.02;;;-0.30;99.90;;;;;;5039216;28;25066;-74
2023/03/03 06:28:44;;;;;;;21.10;7.90;;;-0.40;99.90;;;;;;5039750;28;25104;-74
2023/03/03 06:31:11;;;;;;;20.63;7.20;;;-0.30;99.90;;;;;;5039746;28;25076;-74
2023/03/03 06:33:39;;;;;;;25.20;8.55;;;-0.30;99.90;;;;;;5039404;28;25100;-80
2023/03/03 06:36:08;;;;;;;18.08;7.22;;;-0.40;99.90;;;;;;5021503;28;25127;-85
2023/03/03 06:38:35;;;;;;;18.23;7.38;;;-0.30;99.90;;;;;;5022018;28;25135;-87
2023/03/03 06:41:06;;;;;;;19.77;8.35;;;-0.40;99.90;;;;;;5030797;28;25110;-78
2023/03/03 06:43:34;;;;;;;19.45;7.43;;;-0.40;99.90;;;;;;5057856;28;25144;-77
2023/03/03 06:46:02;;;;;;;22.75;7.80;;;-0.40;99.90;;;;;;5058903;28;25056;-78
2023/03/03 06:48:30;;;;;;;21.55;8.50;;;-0.30;99.90;;;;;;5058658;28;25134;-78
2023/03/03 06:51:01;;;;;;;21.02;8.70;;;-0.30;99.90;;;;;;5057815;28;25087;-78
2023/03/03 06:53:33;;;;;;;21.38;8.00;;;-0.30;99.90;;;;;;5057479;28;25066;-79
2023/03/03 06:56:01;;;;;;;19.42;7.57;;;-0.30;99.90;;;;;;5060261;28;25063;-80
2023/03/03 06:58:30;;;;;;;24.00;8.02;;;-0.20;99.90;;;;;;5057537;28;25127;-83
2023/03/03 07:00:59;;;;;;;23.63;7.70;;;-0.20;99.90;;;;;;5058011;28;25118;-82
2023/03/03 07:03:34;;;;;;;24.52;8.23;;;-0.20;99.90;;;;;;5058093;28;25058;-88
2023/03/03 07:06:08;;;;;;;22.83;8.10;;;-0.20;99.90;;;;;;5058049;28;25068;-88
2023/03/03 07:08:36;;;;;;;20.10;7.78;;;-0.20;99.90;;;;;;5057546;28;25138;-82
2023/03/03 07:11:13;;;;;;;23.40;8.48;;;-0.10;99.90;;;;;;5058602;28;25116;-82
2023/03/03 07:13:53;;;;;;;22.30;7.53;;;-0.10;99.90;;;;;;5058371;28;25064;-79
2023/03/03 07:16:27;;;;;;;26.90;9.60;;;-0.10;99.90;;;;;;5057187;28;25061;-80
2023/03/03 07:19:05;;;;;;;24.92;8.43;;;-0.10;99.90;;;;;;5056172;28;25059;-82
2023/03/03 07:21:37;;;;;;;23.80;8.75;;;0.00;99.90;;;;;;5057150;28;25101;-81
2023/03/03 07:24:30;;;;;;;21.10;8.43;;;0.00;99.90;;;;;;5057101;28;25122;-75
2023/03/03 07:27:13;;;;;;;22.60;8.35;;;0.00;99.90;;;;;;5058369;28;25081;-76
2023/03/03 07:29:40;;;;;;;18.75;7.63;;;0.10;99.90;;;;;;5058014;28;25067;-79
2023/03/03 07:32:28;;;;;;;18.58;7.15;;;0.10;99.90;;;;;;5057047;28;25062;-75
2023/03/03 07:34:56;;;;;;;18.27;7.80;;;0.10;99.90;;;;;;5057845;28;25120;-73
2023/03/03 07:37:38;;;;;;;17.20;5.80;;;0.20;99.90;;;;;;5058188;28;25067;-73
2023/03/03 07:40:33;;;;;;;18.38;6.35;;;0.20;99.90;;;;;;5057833;28;25082;-73
2023/03/03 07:43:01;;;;;;;21.00;7.90;;;0.30;99.90;;;;;;5037993;28;25063;-75
2023/03/03 07:45:36;;;;;;;22.27;7.20;;;0.30;99.90;;;;;;5037752;28;25135;-72
2023/03/03 07:48:22;;;;;;;16.85;6.70;;;0.30;99.90;;;;;;5037662;28;25113;-72
2023/03/03 07:50:49;;;;;;;19.70;7.18;;;0.40;99.90;;;;;;5037789;28;25074;-72
2023/03/03 07:53:35;;;;;;;19.85;7.25;;;0.40;99.90;;;;;;5037622;28;25056;-72
2023/03/03 07:56:27;;;;;;;14.85;6.15;;;0.40;99.90;;;;;;5037897;28;25082;-72
2023/03/03 07:58:55;;;;;;;20.95;8.43;;;0.40;99.90;;;;;;5038091;28;25116;-72
2023/03/03 08:01:44;;;;;;;20.98;8.35;;;0.40;99.90;;;;;;5038188;28;25099;-72
2023/03/03 08:04:33;;;;;;;18.92;7.35;;;0.50;99.90;;;;;;5036271;28;25075;-72
2023/03/03 08:07:12;;;;;;;18.45;8.27;;;0.50;99.90;;;;;;5019800;28;25125;-72
2023/03/03 08:09:46;;;;;;;18.20;7.25;;;0.60;99.90;;;;;;5037882;28;25070;-72
2023/03/03 08:12:40;;;;;;;18.80;7.90;;;0.60;99.90;;;;;;5037242;28;25066;-72
2023/03/03 08:15:22;;;;;;;17.15;8.02;;;0.60;99.90;;;;;;5037374;28;25049;-72
2023/03/03 08:17:52;;;;;;;19.77;7.25;;;0.70;99.90;;;;;;5037094;28;25098;-72
2023/03/03 08:20:37;;;;;;;21.02;7.13;;;0.70;99.90;;;;;;5037121;28;25056;-76
2023/03/03 08:23:04;;;;;;;23.60;7.97;;;0.70;99.90;;;;;;5037425;28;25143;-72
2023/03/03 08:25:31;;;;;;;20.95;7.63;;;0.80;99.90;;;;;;5037821;28;25067;-72
2023/03/03 08:27:59;;;;;;;22.02;7.90;;;0.80;99.90;;;;;;5037203;28;25112;-72
2023/03/03 08:30:27;;;;;;;20.60;7.75;;;0.80;99.90;;;;;;5019399;28;25068;-72
2023/03/03 08:32:54;;;;;;;19.23;6.93;;;0.90;99.90;;;;;;5037138;28;25059;-72
2023/03/03 08:35:22;;;;;;;20.65;7.95;;;0.90;99.90;;;;;;5037084;28;25100;-73
2023/03/03 08:37:50;;;;;;;19.13;8.02;;;0.90;99.90;;;;;;5037493;28;25090;-72
2023/03/03 08:40:17;;;;;;;23.88;7.55;;;1.00;99.90;;;;;;5037093;28;25073;-72
2023/03/03 08:42:44;;;;;;;19.30;7.82;;;1.00;99.90;;;;;;5037356;28;25055;-74
2023/03/03 08:45:12;;;;;;;17.05;6.47;;;1.10;99.90;;;;;;5019269;28;25064;-74
2023/03/03 08:47:39;;;;;;;16.77;6.85;;;1.20;99.90;;;;;;5036631;28;25080;-74
2023/03/03 08:50:07;;;;;;;21.15;7.90;;;1.30;99.90;;;;;;5036599;28;25066;-74
2023/03/03 08:52:34;;;;;;;19.42;8.13;;;1.30;99.90;;;;;;5036831;28;25077;-74
2023/03/03 08:55:01;;;;;;;19.48;8.45;;;1.40;99.90;;;;;;5019040;28;25139;-75
2023/03/03 08:57:28;;;;;;;16.10;7.25;;;1.40;99.90;;;;;;5036549;28;25127;-75
2023/03/03 08:59:57;;;;;;;16.27;6.45;;;1.50;99.90;;;;;;5036760;28;25092;-74
2023/03/03 09:02:24;;;;;;;18.67;7.57;;;1.50;99.90;;;;;;5018890;28;25077;-75
2023/03/03 09:04:51;;;;;;;18.50;6.88;;;1.60;99.90;;;;;;5036399;28;25062;-73
2023/03/03 09:07:18;;;;;;;17.77;6.85;;;1.60;99.90;;;;;;5019080;28;25074;-72
2023/03/03 09:09:46;;;;;;;16.55;7.15;;;1.70;99.90;;;;;;5018750;28;25087;-72
2023/03/03 09:12:34;;;;;;;18.08;7.00;;;1.70;99.90;;;;;;5036487;28;25066;-71
2023/03/03 09:15:18;;;;;;;15.02;5.90;;;1.80;99.90;;;;;;5036327;28;25060;-71
2023/03/03 09:17:46;;;;;;;14.70;6.50;;;1.80;99.90;;;;;;5036589;28;25053;-71
2023/03/03 09:20:32;;;;;;;15.68;7.55;;;1.90;99.90;;;;;;5036432;28;25124;-72
2023/03/03 09:23:21;;;;;;;15.52;6.68;;;2.00;99.90;;;;;;5036755;28;25076;-72
2023/03/03 09:25:50;;;;;;;23.10;7.38;;;2.00;99.90;;;;;;5036170;28;25071;-71
2023/03/03 09:28:31;;;;;;;16.27;6.00;;;2.10;99.90;;;;;;5036208;28;25078;-72
2023/03/03 09:31:01;;;;;;;16.50;6.55;;;2.10;99.90;;;;;;5036325;28;25075;-71
2023/03/03 09:33:58;;;;;;;16.63;6.65;;;2.20;99.90;;;;;;5018563;28;25080;-72
2023/03/03 09:36:36;;;;;;;17.10;6.57;;;2.30;99.90;;;;;;5031718;28;25101;-72
2023/03/03 09:39:29;;;;;;;17.48;6.70;;;2.30;99.90;;;;;;5036648;28;25068;-72
2023/03/03 09:42:24;;;;;;;18.63;7.32;;;2.40;99.90;;;;;;5036227;28;25089;-71
2023/03/03 09:45:17;;;;;;;17.67;6.97;;;2.40;99.90;;;;;;5040593;28;25061;-72
2023/03/03 09:48:02;;;;;;;13.65;6.03;;;2.50;99.90;;;;;;5040518;28;25125;-72
2023/03/03 09:51:11;;;;;;;16.10;6.22;;;2.60;99.90;;;;;;5040635;28;25107;-72
2023/03/03 09:53:58;;;;;;;17.55;6.55;;;2.60;99.90;;;;;;5039897;28;25062;-73
2023/03/03 09:56:43;;;;;;;16.17;6.93;;;2.60;99.90;;;;;;5039888;28;25058;-74
2023/03/03 09:59:30;;;;;;;15.43;6.80;;;2.70;99.90;;;;;;5039847;28;25123;-73
2023/03/03 10:02:04;;;;;;;;;;;2.70;99.90;;;;;;5022582;28;28908;-72
2023/03/03 10:05:12;;;;;;;19.27;7.10;;;2.70;99.90;;;;;;5039587;28;24072;-72
2023/03/03 10:08:02;;;;;;;18.30;7.65;;;2.80;99.90;;;;;;5039911;28;25085;-73
2023/03/03 10:10:56;;;;;;;15.32;6.70;;;2.90;99.90;;;;;;5039880;28;25108;-72
2023/03/03 10:13:58;;;;;;;19.63;7.35;;;3.00;99.90;;;;;;5021966;28;25052;-72
2023/03/03 10:16:44;;;;;;;15.30;6.88;;;3.10;99.90;;;;;;5037406;28;25068;-72
2023/03/03 10:19:25;;;;;;;16.50;6.43;;;3.20;99.90;;;;;;5039370;28;25085;-72
2023/03/03 10:22:02;;;;;;;15.68;6.72;;;3.20;99.90;;;;;;5039578;28;25093;-72
2023/03/03 10:24:38;;;;;;;16.05;5.80;;;3.30;99.90;;;;;;5040317;28;25133;-72
2023/03/03 10:27:16;;;;;;;11.98;5.43;;;3.40;99.90;;;;;;5039432;28;25080;-73
2023/03/03 10:29:58;;;;;;;13.48;6.13;;;3.40;99.90;;;;;;5021723;28;25099;-73
2023/03/03 10:32:52;;;;;;;16.40;7.30;;;3.40;99.90;;;;;;5040228;28;25082;-73
2023/03/03 10:35:34;;;;;;;15.20;6.30;;;3.40;99.90;;;;;;5021900;28;25123;-72
2023/03/03 10:38:15;;;;;;;17.25;6.88;;;3.40;99.90;;;;;;5021687;28;25150;-72
2023/03/03 10:40:51;;;;;;;15.77;6.60;;;3.50;99.90;;;;;;5025126;28;25072;-73
2023/03/03 10:43:38;;;;;;;17.02;6.45;;;3.60;99.90;;;;;;5057771;28;25062;-72
2023/03/03 10:46:32;;;;;;;14.85;6.97;;;3.80;99.90;;;;;;5057975;28;25060;-73
2023/03/03 10:49:02;;;;;;;17.85;7.22;;;3.90;99.90;;;;;;5027825;28;25062;-73
2023/03/03 10:51:48;;;;;;;18.40;6.78;;;3.90;99.90;;;;;;5058172;28;25069;-73
2023/03/03 10:55:00;;;;;;;14.38;5.80;;;3.90;99.90;;;;;;5057376;28;25051;-72
2023/03/03 10:58:02;;;;;;;15.95;6.25;;;4.00;99.90;;;;;;5025707;28;25058;-72
2023/03/03 11:00:50;;;;;;;12.77;5.57;;;4.20;99.90;;;;;;5058571;28;25117;-72
2023/03/03 11:03:52;;;;;;;12.77;5.68;;;4.20;99.90;;;;;;5058613;28;25051;-72
2023/03/03 11:06:37;;;;;;;10.50;5.00;;;4.20;99.90;;;;;;5059531;28;25068;-73
2023/03/03 11:09:30;;;;;;;13.18;6.32;;;4.10;99.90;;;;;;5058696;28;25455;-73
2023/03/03 11:12:13;;;;;;;15.70;6.57;;;4.10;99.90;;;;;;5058416;28;25067;-75
2023/03/03 11:15:13;;;;;;;17.80;6.30;;;4.10;99.90;;;;;;5057218;28;25137;-74
2023/03/03 11:18:16;;;;;;;13.73;5.43;;;4.20;99.90;;;;;;5057149;28;25103;-74
2023/03/03 11:20:51;;;;;;;11.43;5.40;;;4.20;99.90;;;;;;5058199;28;25061;-74
2023/03/03 11:23:46;;;;;;;12.00;5.35;;;4.30;99.90;;;;;;5056989;28;25093;-73
2023/03/03 11:26:44;;;;;;;11.30;5.00;;;4.30;99.90;;;;;;5058717;28;25082;-73
2023/03/03 11:29:36;;;;;;;10.55;5.57;;;4.40;99.90;;;;;;5058394;28;25122;-74
2023/03/03 11:32:16;;;;;;;9.60;4.85;;;4.50;99.90;;;;;;5056965;28;25100;-74
2023/03/03 11:35:08;;;;;;;10.65;5.43;;;4.50;99.90;;;;;;5058001;28;25099;-73
2023/03/03 11:38:04;;;;;;;12.93;4.97;;;4.50;99.90;;;;;;5058350;28;25065;-73
2023/03/03 11:40:55;;;;;;;8.90;4.07;;;4.60;99.90;;;;;;5056322;28;25075;-73
2023/03/03 11:43:30;;;;;;;10.30;4.97;;;4.80;99.90;;;;;;5037889;28;25111;-73
2023/03/03 11:46:06;;;;;;;11.68;5.25;;;5.00;99.90;;;;;;5037864;28;25083;-73
2023/03/03 11:48:37;;;;;;;14.07;5.35;;;5.10;99.90;;;;;;5037740;28;25137;-74
2023/03/03 11:51:37;;;;;;;12.73;5.35;;;5.20;99.90;;;;;;5038074;28;25059;-74
2023/03/03 11:54:30;;;;;;;9.02;4.30;;;5.30;99.90;;;;;;5020010;28;25075;-75
2023/03/03 11:57:21;;;;;;;10.60;5.30;;;5.50;99.90;;;;;;5037122;28;25058;-74
2023/03/03 12:00:00;;;;;;;12.13;5.65;;;5.60;99.90;;;;;;5037472;28;25119;-73
2023/03/03 12:02:56;;;;;;;11.18;5.20;;;5.70;99.90;;;;;;5037567;28;25070;-74
2023/03/03 12:05:56;;;;;;;11.52;5.70;;;5.80;99.90;;;;;;5037368;28;25074;-74
2023/03/03 12:09:00;;;;;;;12.02;5.53;;;5.80;99.90;;;;;;5020237;28;25096;-74
2023/03/03 12:11:32;;;;;;;14.45;5.80;;;5.80;99.90;;;;;;5025275;28;25128;-73
2023/03/03 12:14:15;;;;;;;13.60;5.32;;;5.80;99.90;;;;;;5037477;28;25112;-74
2023/03/03 12:17:22;;;;;;;12.80;5.28;;;5.80;99.90;;;;;;5037546;28;25101;-74
2023/03/03 12:20:13;;;;;;;14.30;6.40;;;5.70;99.90;;;;;;5028181;28;25099;-74
2023/03/03 12:22:48;;;;;;;12.98;6.20;;;5.70;99.90;;;;;;5019985;28;25114;-74
2023/03/03 12:25:42;;;;;;;11.15;5.68;;;5.70;99.90;;;;;;5037354;28;25063;-74
2023/03/03 12:28:42;;;;;;;12.18;5.57;;;5.70;99.90;;;;;;5037663;28;25045;-74
2023/03/03 12:31:25;;;;;;;13.75;6.00;;;5.70;99.90;;;;;;5035020;28;25155;-74
2023/03/03 12:34:09;;;;;;;14.05;6.03;;;5.60;99.90;;;;;;5037689;28;25132;-74
2023/03/03 12:36:48;;;;;;;12.77;5.95;;;5.70;99.90;;;;;;5037193;28;25068;-74
2023/03/03 12:39:36;;;;;;;10.32;5.15;;;5.60;99.90;;;;;;5037235;28;25137;-74
2023/03/03 12:42:17;;;;;;;10.05;4.85;;;5.60;99.90;;;;;;5044312;28;25114;-74
2023/03/03 12:45:06;;;;;;;11.15;4.80;;;5.70;99.90;;;;;;5056357;28;25105;-74
2023/03/03 12:47:46;;;;;;;12.18;5.43;;;5.70;99.90;;;;;;5056529;28;25118;-74
2023/03/03 12:50:36;;;;;;;11.55;4.85;;;5.80;99.90;;;;;;5056572;28;25077;-74
2023/03/03 12:53:21;;;;;;;9.32;4.30;;;5.80;99.90;;;;;;5039942;28;25101;-74
2023/03/03 12:55:57;;;;;;;9.88;4.55;;;5.90;99.90;;;;;;5056703;28;25063;-74
2023/03/03 12:58:46;;;;;;;10.63;4.88;;;5.90;99.90;;;;;;5056504;28;25074;-74
2023/03/03 13:01:39;;;;;;;8.65;4.18;;;5.80;99.90;;;;;;5057104;28;25059;-74
2023/03/03 13:04:34;;;;;;;11.45;5.25;;;5.80;99.90;;;;;;5055807;28;25103;-74
2023/03/03 13:07:22;;;;;;;11.63;4.70;;;5.90;99.90;;;;;;5055444;28;25071;-74
2023/03/03 13:10:08;;;;;;;10.55;5.10;;;5.80;99.90;;;;;;5056305;28;25064;-74
2023/03/03 13:13:04;;;;;;;12.00;4.95;;;5.70;99.90;;;;;;5056828;28;25056;-74
2023/03/03 13:15:45;;;;;;;11.80;5.05;;;5.60;99.90;;;;;;5056995;28;25061;-74
2023/03/03 13:18:45;;;;;;;11.35;4.82;;;5.40;99.90;;;;;;5056153;28;25072;-74
2023/03/03 13:21:35;;;;;;;11.18;5.18;;;5.40;99.90;;;;;;5055159;28;25061;-74
2023/03/03 13:24:32;;;;;;;11.15;4.88;;;5.40;99.90;;;;;;5056470;28;25069;-74